sensor_id;sensor_type;location;lat;lon;timestamp;P1;durP1;ratioP1;P2;durP2;ratioP2
14817;SDS011;7500;57.698;11.986;2023-12-28T00:02:14;2.07;;;0.60;;
14817;SDS011;7500;57.698;11.986;2023-12-28T00:04:40;2.10;;;0.50;;
14817;SDS011;7500;57.698;11.986;2023-12-28T00:07:08;2.60;;;0.60;;
14817;SDS011;7500;57.698;11.986;2023-12-28T00:09:35;1.43;;;0.57;;
14817;SDS011;7500;57.698;11.986;2023-12-28T00:12:01;1.37;;;0.60;;
14817;SDS011;7500;57.698;11.986;2023-12-28T00:14:28;0.80;;;0.47;;
14817;SDS011;7500;57.698;11.986;2023-12-28T00:16:55;2.37;;;0.60;;
14817;SDS011;7500;57.698;11.986;2023-12-28T00:19:21;3.57;;;0.90;;
14817;SDS011;7500;57.698;11.986;2023-12-28T00:21:48;1.47;;;0.33;;
14817;SDS011;7500;57.698;11.986;2023-12-28T00:24:16;2.03;;;0.57;;
14817;SDS011;7500;57.698;11.986;2023-12-28T00:26:42;1.60;;;0.60;;
14817;SDS011;7500;57.698;11.986;2023-12-28T00:29:09;3.67;;;0.50;;
14817;SDS011;7500;57.698;11.986;2023-12-28T00:31:35;1.43;;;0.53;;
14817;SDS011;7500;57.698;11.986;2023-12-28T00:34:02;0.33;;;0.30;;
14817;SDS011;7500;57.698;11.986;2023-12-28T00:36:28;2.35;;;0.77;;
14817;SDS011;7500;57.698;11.986;2023-12-28T00:38:55;1.10;;;0.40;;
14817;SDS011;7500;57.698;11.986;2023-12-28T00:41:23;1.90;;;0.60;;
14817;SDS011;7500;57.698;11.986;2023-12-28T00:43:49;1.33;;;0.50;;
14817;SDS011;7500;57.698;11.986;2023-12-28T00:46:16;1.60;;;0.57;;
14817;SDS011;7500;57.698;11.986;2023-12-28T00:48:42;0.90;;;0.50;;
14817;SDS011;7500;57.698;11.986;2023-12-28T00:51:09;0.80;;;0.50;;
14817;SDS011;7500;57.698;11.986;2023-12-28T00:53:35;1.93;;;0.50;;
14817;SDS011;7500;57.698;11.986;2023-12-28T00:56:02;1.40;;;0.47;;
14817;SDS011;7500;57.698;11.986;2023-12-28T00:58:30;1.77;;;0.50;;
14817;SDS011;7500;57.698;11.986;2023-12-28T01:00:56;0.90;;;0.40;;
14817;SDS011;7500;57.698;11.986;2023-12-28T01:03:23;1.57;;;0.60;;
14817;SDS011;7500;57.698;11.986;2023-12-28T01:05:49;1.70;;;0.50;;
14817;SDS011;7500;57.698;11.986;2023-12-28T01:08:17;2.53;;;0.87;;
14817;SDS011;7500;57.698;11.986;2023-12-28T01:10:44;0.87;;;0.47;;
14817;SDS011;7500;57.698;11.986;2023-12-28T01:13:10;0.80;;;0.60;;
14817;SDS011;7500;57.698;11.986;2023-12-28T01:15:38;1.10;;;0.53;;
14817;SDS011;7500;57.698;11.986;2023-12-28T01:18:05;0.73;;;0.40;;
14817;SDS011;7500;57.698;11.986;2023-12-28T01:20:32;0.40;;;0.30;;
14817;SDS011;7500;57.698;11.986;2023-12-28T01:22:58;0.60;;;0.43;;
14817;SDS011;7500;57.698;11.986;2023-12-28T01:25:25;2.30;;;0.70;;
14817;SDS011;7500;57.698;11.986;2023-12-28T01:27:51;0.83;;;0.23;;
14817;SDS011;7500;57.698;11.986;2023-12-28T01:30:18;2.60;;;0.50;;
14817;SDS011;7500;57.698;11.986;2023-12-28T01:32:46;0.50;;;0.33;;
14817;SDS011;7500;57.698;11.986;2023-12-28T01:35:12;1.07;;;0.40;;
14817;SDS011;7500;57.698;11.986;2023-12-28T01:37:39;0.77;;;0.50;;
14817;SDS011;7500;57.698;11.986;2023-12-28T01:40:06;0.53;;;0.40;;
14817;SDS011;7500;57.698;11.986;2023-12-28T01:42:34;0.93;;;0.40;;
14817;SDS011;7500;57.698;11.986;2023-12-28T01:45:00;4.87;;;0.60;;
14817;SDS011;7500;57.698;11.986;2023-12-28T01:47:27;1.37;;;0.50;;
14817;SDS011;7500;57.698;11.986;2023-12-28T01:49:55;0.60;;;0.33;;
14817;SDS011;7500;57.698;11.986;2023-12-28T01:52:22;3.23;;;0.40;;
14817;SDS011;7500;57.698;11.986;2023-12-28T01:54:49;0.33;;;0.33;;
14817;SDS011;7500;57.698;11.986;2023-12-28T01:57:16;1.20;;;0.50;;
14817;SDS011;7500;57.698;11.986;2023-12-28T01:59:43;0.57;;;0.27;;
14817;SDS011;7500;57.698;11.986;2023-12-28T02:02:10;0.93;;;0.50;;
14817;SDS011;7500;57.698;11.986;2023-12-28T02:04:37;0.33;;;0.17;;
14817;SDS011;7500;57.698;11.986;2023-12-28T02:07:04;0.33;;;0.30;;
14817;SDS011;7500;57.698;11.986;2023-12-28T02:09:31;2.47;;;0.43;;
14817;SDS011;7500;57.698;11.986;2023-12-28T02:11:58;0.87;;;0.20;;
14817;SDS011;7500;57.698;11.986;2023-12-28T02:14:24;0.33;;;0.30;;
14817;SDS011;7500;57.698;11.986;2023-12-28T02:16:53;0.30;;;0.30;;
14817;SDS011;7500;57.698;11.986;2023-12-28T02:19:24;0.73;;;0.30;;
14817;SDS011;7500;57.698;11.986;2023-12-28T02:21:52;1.00;;;0.10;;
14817;SDS011;7500;57.698;11.986;2023-12-28T02:24:20;2.73;;;0.40;;
14817;SDS011;7500;57.698;11.986;2023-12-28T02:26:47;0.20;;;0.10;;
14817;SDS011;7500;57.698;11.986;2023-12-28T02:29:14;4.70;;;0.60;;
14817;SDS011;7500;57.698;11.986;2023-12-28T02:31:42;0.20;;;0.20;;
14817;SDS011;7500;57.698;11.986;2023-12-28T02:34:12;0.30;;;0.20;;
14817;SDS011;7500;57.698;11.986;2023-12-28T02:36:40;1.20;;;0.10;;
14817;SDS011;7500;57.698;11.986;2023-12-28T02:39:07;0.80;;;0.40;;
14817;SDS011;7500;57.698;11.986;2023-12-28T02:41:34;4.50;;;0.37;;
14817;SDS011;7500;57.698;11.986;2023-12-28T02:44:02;10.67;;;0.40;;
14817;SDS011;7500;57.698;11.986;2023-12-28T02:46:29;9.40;;;0.40;;
14817;SDS011;7500;57.698;11.986;2023-12-28T02:48:56;4.97;;;0.40;;
14817;SDS011;7500;57.698;11.986;2023-12-28T02:51:24;4.33;;;0.40;;
14817;SDS011;7500;57.698;11.986;2023-12-28T02:53:51;3.93;;;0.50;;
14817;SDS011;7500;57.698;11.986;2023-12-28T02:56:17;8.70;;;0.57;;
14817;SDS011;7500;57.698;11.986;2023-12-28T02:58:44;1.93;;;0.30;;
14817;SDS011;7500;57.698;11.986;2023-12-28T03:01:12;3.63;;;0.30;;
14817;SDS011;7500;57.698;11.986;2023-12-28T03:03:38;3.87;;;0.20;;
14817;SDS011;7500;57.698;11.986;2023-12-28T03:06:05;1.70;;;0.37;;
14817;SDS011;7500;57.698;11.986;2023-12-28T03:08:31;0.77;;;0.20;;
14817;SDS011;7500;57.698;11.986;2023-12-28T03:10:58;2.00;;;0.10;;
14817;SDS011;7500;57.698;11.986;2023-12-28T03:13:24;3.83;;;0.70;;
14817;SDS011;7500;57.698;11.986;2023-12-28T03:15:51;0.83;;;0.30;;
14817;SDS011;7500;57.698;11.986;2023-12-28T03:18:19;0.90;;;0.10;;
14817;SDS011;7500;57.698;11.986;2023-12-28T03:20:45;3.70;;;0.30;;
14817;SDS011;7500;57.698;11.986;2023-12-28T03:23:12;0.83;;;0.20;;
14817;SDS011;7500;57.698;11.986;2023-12-28T03:25:38;1.30;;;0.50;;
14817;SDS011;7500;57.698;11.986;2023-12-28T03:28:05;0.77;;;0.20;;
14817;SDS011;7500;57.698;11.986;2023-12-28T03:30:31;0.20;;;0.13;;
14817;SDS011;7500;57.698;11.986;2023-12-28T03:32:58;0.20;;;0.10;;
14817;SDS011;7500;57.698;11.986;2023-12-28T03:35:26;0.20;;;0.20;;
14817;SDS011;7500;57.698;11.986;2023-12-28T03:37:52;0.20;;;0.10;;
14817;SDS011;7500;57.698;11.986;2023-12-28T03:40:19;0.77;;;0.00;;
14817;SDS011;7500;57.698;11.986;2023-12-28T03:42:45;1.23;;;0.10;;
14817;SDS011;7500;57.698;11.986;2023-12-28T03:45:12;1.10;;;0.10;;
14817;SDS011;7500;57.698;11.986;2023-12-28T03:47:38;0.20;;;0.20;;
14817;SDS011;7500;57.698;11.986;2023-12-28T03:50:05;1.13;;;0.20;;
14817;SDS011;7500;57.698;11.986;2023-12-28T03:52:33;0.90;;;0.17;;
14817;SDS011;7500;57.698;11.986;2023-12-28T03:55:00;2.87;;;0.10;;
14817;SDS011;7500;57.698;11.986;2023-12-28T03:57:26;0.20;;;0.20;;
14817;SDS011;7500;57.698;11.986;2023-12-28T03:59:53;1.03;;;0.17;;
14817;SDS011;7500;57.698;11.986;2023-12-28T04:02:20;0.60;;;0.50;;
14817;SDS011;7500;57.698;11.986;2023-12-28T04:04:47;0.10;;;0.00;;
14817;SDS011;7500;57.698;11.986;2023-12-28T04:07:13;0.10;;;0.10;;
14817;SDS011;7500;57.698;11.986;2023-12-28T04:09:42;0.20;;;0.10;;
14817;SDS011;7500;57.698;11.986;2023-12-28T04:12:09;2.10;;;0.20;;
14817;SDS011;7500;57.698;11.986;2023-12-28T04:14:35;0.33;;;0.20;;
14817;SDS011;7500;57.698;11.986;2023-12-28T04:17:02;0.43;;;0.30;;
14817;SDS011;7500;57.698;11.986;2023-12-28T04:19:28;0.20;;;0.20;;
14817;SDS011;7500;57.698;11.986;2023-12-28T04:21:55;0.67;;;0.27;;
14817;SDS011;7500;57.698;11.986;2023-12-28T04:24:22;1.70;;;0.40;;
14817;SDS011;7500;57.698;11.986;2023-12-28T04:26:49;0.63;;;0.10;;
14817;SDS011;7500;57.698;11.986;2023-12-28T04:29:16;0.33;;;0.20;;
14817;SDS011;7500;57.698;11.986;2023-12-28T04:31:42;0.20;;;0.20;;
14817;SDS011;7500;57.698;11.986;2023-12-28T04:34:09;0.27;;;0.20;;
14817;SDS011;7500;57.698;11.986;2023-12-28T04:36:39;0.97;;;0.40;;
14817;SDS011;7500;57.698;11.986;2023-12-28T04:39:05;2.80;;;0.50;;
14817;SDS011;7500;57.698;11.986;2023-12-28T04:41:32;1.97;;;0.60;;
14817;SDS011;7500;57.698;11.986;2023-12-28T04:44:00;0.80;;;0.43;;
14817;SDS011;7500;57.698;11.986;2023-12-28T04:46:26;2.53;;;0.53;;
14817;SDS011;7500;57.698;11.986;2023-12-28T04:48:53;3.50;;;0.67;;
14817;SDS011;7500;57.698;11.986;2023-12-28T04:51:19;0.50;;;0.50;;
14817;SDS011;7500;57.698;11.986;2023-12-28T04:53:46;2.73;;;0.50;;
14817;SDS011;7500;57.698;11.986;2023-12-28T04:56:12;3.57;;;0.60;;
14817;SDS011;7500;57.698;11.986;2023-12-28T04:58:39;1.17;;;0.40;;
14817;SDS011;7500;57.698;11.986;2023-12-28T05:01:06;3.70;;;0.57;;
14817;SDS011;7500;57.698;11.986;2023-12-28T05:03:33;1.03;;;0.80;;
14817;SDS011;7500;57.698;11.986;2023-12-28T05:06:01;2.73;;;0.97;;
14817;SDS011;7500;57.698;11.986;2023-12-28T05:08:27;3.47;;;1.00;;
14817;SDS011;7500;57.698;11.986;2023-12-28T05:10:54;3.37;;;0.90;;
14817;SDS011;7500;57.698;11.986;2023-12-28T05:13:20;0.80;;;0.80;;
14817;SDS011;7500;57.698;11.986;2023-12-28T05:15:47;5.07;;;1.17;;
14817;SDS011;7500;57.698;11.986;2023-12-28T05:18:15;1.93;;;1.03;;
14817;SDS011;7500;57.698;11.986;2023-12-28T05:20:41;2.00;;;1.50;;
14817;SDS011;7500;57.698;11.986;2023-12-28T05:23:08;3.77;;;1.60;;
14817;SDS011;7500;57.698;11.986;2023-12-28T05:25:35;3.37;;;1.90;;
14817;SDS011;7500;57.698;11.986;2023-12-28T05:28:01;5.83;;;2.70;;
14817;SDS011;7500;57.698;11.986;2023-12-28T05:30:28;14.43;;;3.03;;
14817;SDS011;7500;57.698;11.986;2023-12-28T05:32:54;9.37;;;2.90;;
14817;SDS011;7500;57.698;11.986;2023-12-28T05:35:22;9.97;;;3.30;;
14817;SDS011;7500;57.698;11.986;2023-12-28T05:37:49;13.60;;;3.60;;
14817;SDS011;7500;57.698;11.986;2023-12-28T05:40:15;9.47;;;4.10;;
14817;SDS011;7500;57.698;11.986;2023-12-28T05:42:42;11.50;;;3.80;;
14817;SDS011;7500;57.698;11.986;2023-12-28T05:45:08;14.27;;;4.23;;
14817;SDS011;7500;57.698;11.986;2023-12-28T05:47:35;13.80;;;4.37;;
14817;SDS011;7500;57.698;11.986;2023-12-28T05:50:02;13.30;;;4.90;;
14817;SDS011;7500;57.698;11.986;2023-12-28T05:52:32;16.57;;;6.17;;
14817;SDS011;7500;57.698;11.986;2023-12-28T05:54:58;12.43;;;5.30;;
14817;SDS011;7500;57.698;11.986;2023-12-28T05:57:25;19.53;;;6.07;;
14817;SDS011;7500;57.698;11.986;2023-12-28T05:59:55;36.23;;;7.77;;
14817;SDS011;7500;57.698;11.986;2023-12-28T06:02:21;19.77;;;7.00;;
14817;SDS011;7500;57.698;11.986;2023-12-28T06:04:48;26.03;;;6.97;;
14817;SDS011;7500;57.698;11.986;2023-12-28T06:07:13;30.93;;;7.57;;
14817;SDS011;7500;57.698;11.986;2023-12-28T06:09:41;46.87;;;8.77;;
14817;SDS011;7500;57.698;11.986;2023-12-28T06:12:08;41.07;;;8.67;;
14817;SDS011;7500;57.698;11.986;2023-12-28T06:14:35;30.47;;;7.73;;
14817;SDS011;7500;57.698;11.986;2023-12-28T06:17:01;45.47;;;9.07;;
14817;SDS011;7500;57.698;11.986;2023-12-28T06:19:28;40.63;;;8.03;;
14817;SDS011;7500;57.698;11.986;2023-12-28T06:21:55;49.13;;;8.60;;
14817;SDS011;7500;57.698;11.986;2023-12-28T06:24:23;44.33;;;8.97;;
14817;SDS011;7500;57.698;11.986;2023-12-28T06:26:51;61.30;;;8.87;;
14817;SDS011;7500;57.698;11.986;2023-12-28T06:29:18;39.20;;;8.27;;
14817;SDS011;7500;57.698;11.986;2023-12-28T06:31:44;40.30;;;8.60;;
14817;SDS011;7500;57.698;11.986;2023-12-28T06:34:11;57.47;;;8.27;;
14817;SDS011;7500;57.698;11.986;2023-12-28T06:36:37;32.93;;;7.17;;
14817;SDS011;7500;57.698;11.986;2023-12-28T06:39:04;44.03;;;8.27;;
14817;SDS011;7500;57.698;11.986;2023-12-28T06:41:30;40.67;;;6.80;;
14817;SDS011;7500;57.698;11.986;2023-12-28T06:43:58;41.67;;;7.73;;
14817;SDS011;7500;57.698;11.986;2023-12-28T06:46:24;36.23;;;7.00;;
14817;SDS011;7500;57.698;11.986;2023-12-28T06:48:51;43.23;;;7.50;;
14817;SDS011;7500;57.698;11.986;2023-12-28T06:51:17;55.03;;;8.13;;
14817;SDS011;7500;57.698;11.986;2023-12-28T06:53:44;37.50;;;7.47;;
14817;SDS011;7500;57.698;11.986;2023-12-28T06:56:11;41.97;;;8.07;;
14817;SDS011;7500;57.698;11.986;2023-12-28T06:58:37;46.53;;;7.50;;
14817;SDS011;7500;57.698;11.986;2023-12-28T07:01:05;46.83;;;7.47;;
14817;SDS011;7500;57.698;11.986;2023-12-28T07:03:32;40.67;;;7.57;;
14817;SDS011;7500;57.698;11.986;2023-12-28T07:05:58;42.73;;;6.97;;
14817;SDS011;7500;57.698;11.986;2023-12-28T07:08:25;45.33;;;7.60;;
14817;SDS011;7500;57.698;11.986;2023-12-28T07:10:52;37.87;;;7.00;;
14817;SDS011;7500;57.698;11.986;2023-12-28T07:13:18;37.87;;;7.57;;
14817;SDS011;7500;57.698;11.986;2023-12-28T07:15:45;39.37;;;6.30;;
14817;SDS011;7500;57.698;11.986;2023-12-28T07:18:13;36.90;;;6.43;;
14817;SDS011;7500;57.698;11.986;2023-12-28T07:20:39;39.93;;;6.67;;
14817;SDS011;7500;57.698;11.986;2023-12-28T07:23:05;30.60;;;5.80;;
14817;SDS011;7500;57.698;11.986;2023-12-28T07:25:33;42.77;;;6.37;;
14817;SDS011;7500;57.698;11.986;2023-12-28T07:28:00;32.60;;;6.40;;
14817;SDS011;7500;57.698;11.986;2023-12-28T07:30:27;43.27;;;6.70;;
14817;SDS011;7500;57.698;11.986;2023-12-28T07:32:54;30.83;;;6.40;;
14817;SDS011;7500;57.698;11.986;2023-12-28T07:35:22;38.73;;;5.77;;
14817;SDS011;7500;57.698;11.986;2023-12-28T07:37:49;38.23;;;5.73;;
14817;SDS011;7500;57.698;11.986;2023-12-28T07:40:15;35.77;;;5.60;;
14817;SDS011;7500;57.698;11.986;2023-12-28T07:42:42;38.20;;;5.60;;
14817;SDS011;7500;57.698;11.986;2023-12-28T07:45:09;27.63;;;4.97;;
14817;SDS011;7500;57.698;11.986;2023-12-28T07:47:35;34.50;;;5.63;;
14817;SDS011;7500;57.698;11.986;2023-12-28T07:50:02;37.87;;;5.30;;
14817;SDS011;7500;57.698;11.986;2023-12-28T07:52:30;42.83;;;5.67;;
14817;SDS011;7500;57.698;11.986;2023-12-28T07:54:56;38.10;;;5.53;;
14817;SDS011;7500;57.698;11.986;2023-12-28T07:57:24;41.27;;;6.07;;
14817;SDS011;7500;57.698;11.986;2023-12-28T07:59:50;42.50;;;5.83;;
14817;SDS011;7500;57.698;11.986;2023-12-28T08:02:17;32.40;;;5.90;;
14817;SDS011;7500;57.698;11.986;2023-12-28T08:04:43;36.60;;;6.20;;
14817;SDS011;7500;57.698;11.986;2023-12-28T08:07:10;39.93;;;5.57;;
14817;SDS011;7500;57.698;11.986;2023-12-28T08:09:38;35.53;;;5.63;;
14817;SDS011;7500;57.698;11.986;2023-12-28T08:12:05;34.93;;;5.70;;
14817;SDS011;7500;57.698;11.986;2023-12-28T08:14:31;35.03;;;5.87;;
14817;SDS011;7500;57.698;11.986;2023-12-28T08:16:58;46.53;;;5.60;;
14817;SDS011;7500;57.698;11.986;2023-12-28T08:19:24;30.60;;;5.50;;
14817;SDS011;7500;57.698;11.986;2023-12-28T08:21:51;35.27;;;5.00;;
14817;SDS011;7500;57.698;11.986;2023-12-28T08:24:17;35.03;;;5.70;;
14817;SDS011;7500;57.698;11.986;2023-12-28T08:26:45;37.10;;;5.10;;
14817;SDS011;7500;57.698;11.986;2023-12-28T08:29:12;37.50;;;5.27;;
14817;SDS011;7500;57.698;11.986;2023-12-28T08:31:38;28.80;;;5.10;;
14817;SDS011;7500;57.698;11.986;2023-12-28T08:34:06;37.70;;;5.20;;
14817;SDS011;7500;57.698;11.986;2023-12-28T08:36:32;33.57;;;5.37;;
14817;SDS011;7500;57.698;11.986;2023-12-28T08:38:59;31.23;;;4.73;;
14817;SDS011;7500;57.698;11.986;2023-12-28T08:41:26;28.13;;;4.93;;
14817;SDS011;7500;57.698;11.986;2023-12-28T08:43:54;31.97;;;4.67;;
14817;SDS011;7500;57.698;11.986;2023-12-28T08:46:21;29.77;;;4.47;;
14817;SDS011;7500;57.698;11.986;2023-12-28T08:48:47;26.67;;;5.00;;
14817;SDS011;7500;57.698;11.986;2023-12-28T08:51:14;25.37;;;4.00;;
14817;SDS011;7500;57.698;11.986;2023-12-28T08:53:40;26.07;;;4.13;;
14817;SDS011;7500;57.698;11.986;2023-12-28T08:56:14;27.93;;;4.00;;
14817;SDS011;7500;57.698;11.986;2023-12-28T08:58:42;20.37;;;4.03;;
14817;SDS011;7500;57.698;11.986;2023-12-28T09:01:10;32.90;;;4.77;;
14817;SDS011;7500;57.698;11.986;2023-12-28T09:03:41;28.90;;;5.07;;
14817;SDS011;7500;57.698;11.986;2023-12-28T09:06:07;25.93;;;4.93;;
14817;SDS011;7500;57.698;11.986;2023-12-28T09:08:34;28.23;;;4.53;;
14817;SDS011;7500;57.698;11.986;2023-12-28T09:11:01;30.80;;;4.87;;
14817;SDS011;7500;57.698;11.986;2023-12-28T09:13:27;31.60;;;5.33;;
14817;SDS011;7500;57.698;11.986;2023-12-28T09:15:54;24.47;;;4.77;;
14817;SDS011;7500;57.698;11.986;2023-12-28T09:18:22;27.33;;;5.53;;
14817;SDS011;7500;57.698;11.986;2023-12-28T09:20:48;32.23;;;4.77;;
14817;SDS011;7500;57.698;11.986;2023-12-28T09:23:15;21.50;;;4.23;;
14817;SDS011;7500;57.698;11.986;2023-12-28T09:25:41;30.87;;;4.47;;
14817;SDS011;7500;57.698;11.986;2023-12-28T09:28:08;30.70;;;4.13;;
14817;SDS011;7500;57.698;11.986;2023-12-28T09:30:34;21.70;;;4.13;;
14817;SDS011;7500;57.698;11.986;2023-12-28T09:33:01;22.80;;;4.37;;
14817;SDS011;7500;57.698;11.986;2023-12-28T09:35:30;19.93;;;3.70;;
14817;SDS011;7500;57.698;11.986;2023-12-28T09:37:56;17.03;;;3.60;;
14817;SDS011;7500;57.698;11.986;2023-12-28T09:40:23;25.07;;;4.27;;
14817;SDS011;7500;57.698;11.986;2023-12-28T09:42:51;19.60;;;3.87;;
14817;SDS011;7500;57.698;11.986;2023-12-28T09:45:19;22.57;;;4.60;;
14817;SDS011;7500;57.698;11.986;2023-12-28T09:47:46;17.57;;;3.40;;
14817;SDS011;7500;57.698;11.986;2023-12-28T09:50:16;13.57;;;3.47;;
14817;SDS011;7500;57.698;11.986;2023-12-28T09:52:45;17.37;;;3.27;;
14817;SDS011;7500;57.698;11.986;2023-12-28T09:55:11;15.97;;;2.87;;
14817;SDS011;7500;57.698;11.986;2023-12-28T09:57:38;15.00;;;3.07;;
14817;SDS011;7500;57.698;11.986;2023-12-28T10:00:05;20.10;;;2.87;;
14817;SDS011;7500;57.698;11.986;2023-12-28T10:02:32;26.27;;;4.27;;
14817;SDS011;7500;57.698;11.986;2023-12-28T10:04:59;14.93;;;3.50;;
14817;SDS011;7500;57.698;11.986;2023-12-28T10:07:25;25.53;;;3.53;;
14817;SDS011;7500;57.698;11.986;2023-12-28T10:09:53;21.20;;;4.00;;
14817;SDS011;7500;57.698;11.986;2023-12-28T10:12:20;22.27;;;3.87;;
14817;SDS011;7500;57.698;11.986;2023-12-28T10:14:46;27.13;;;3.87;;
14817;SDS011;7500;57.698;11.986;2023-12-28T10:17:13;31.17;;;3.87;;
14817;SDS011;7500;57.698;11.986;2023-12-28T10:19:39;27.53;;;4.47;;
14817;SDS011;7500;57.698;11.986;2023-12-28T10:22:06;26.20;;;4.63;;
14817;SDS011;7500;57.698;11.986;2023-12-28T10:24:33;20.87;;;4.00;;
14817;SDS011;7500;57.698;11.986;2023-12-28T10:27:01;34.13;;;5.17;;
14817;SDS011;7500;57.698;11.986;2023-12-28T10:29:27;30.70;;;4.33;;
14817;SDS011;7500;57.698;11.986;2023-12-28T10:31:54;31.63;;;4.83;;
14817;SDS011;7500;57.698;11.986;2023-12-28T10:34:21;30.73;;;4.93;;
14817;SDS011;7500;57.698;11.986;2023-12-28T10:36:50;28.17;;;5.27;;
14817;SDS011;7500;57.698;11.986;2023-12-28T10:39:18;29.43;;;4.53;;
14817;SDS011;7500;57.698;11.986;2023-12-28T10:41:46;32.57;;;5.37;;
14817;SDS011;7500;57.698;11.986;2023-12-28T10:44:16;28.40;;;5.43;;
14817;SDS011;7500;57.698;11.986;2023-12-28T10:46:43;27.63;;;4.97;;
14817;SDS011;7500;57.698;11.986;2023-12-28T10:49:11;44.13;;;5.73;;
14817;SDS011;7500;57.698;11.986;2023-12-28T10:51:40;31.93;;;4.87;;
14817;SDS011;7500;57.698;11.986;2023-12-28T10:54:10;41.33;;;5.83;;
14817;SDS011;7500;57.698;11.986;2023-12-28T10:56:41;43.30;;;6.07;;
14817;SDS011;7500;57.698;11.986;2023-12-28T10:59:09;43.03;;;5.57;;
14817;SDS011;7500;57.698;11.986;2023-12-28T11:01:42;38.27;;;5.37;;
14817;SDS011;7500;57.698;11.986;2023-12-28T11:04:12;47.67;;;5.73;;
14817;SDS011;7500;57.698;11.986;2023-12-28T11:06:42;41.63;;;4.47;;
14817;SDS011;7500;57.698;11.986;2023-12-28T11:09:09;35.33;;;5.40;;
14817;SDS011;7500;57.698;11.986;2023-12-28T11:11:36;41.37;;;5.90;;
14817;SDS011;7500;57.698;11.986;2023-12-28T11:14:03;37.43;;;5.83;;
14817;SDS011;7500;57.698;11.986;2023-12-28T11:16:29;36.37;;;6.13;;
14817;SDS011;7500;57.698;11.986;2023-12-28T11:20:41;41.47;;;6.13;;
14817;SDS011;7500;57.698;11.986;2023-12-28T11:23:09;45.37;;;5.60;;
14817;SDS011;7500;57.698;11.986;2023-12-28T11:25:36;47.13;;;6.17;;
14817;SDS011;7500;57.698;11.986;2023-12-28T11:28:08;38.60;;;5.27;;
14817;SDS011;7500;57.698;11.986;2023-12-28T11:30:35;35.90;;;5.70;;
14817;SDS011;7500;57.698;11.986;2023-12-28T11:33:02;38.43;;;6.03;;
14817;SDS011;7500;57.698;11.986;2023-12-28T11:35:34;34.60;;;5.23;;
14817;SDS011;7500;57.698;11.986;2023-12-28T11:38:03;29.00;;;4.40;;
14817;SDS011;7500;57.698;11.986;2023-12-28T11:40:32;24.87;;;3.80;;
14817;SDS011;7500;57.698;11.986;2023-12-28T11:43:05;23.10;;;3.53;;
14817;SDS011;7500;57.698;11.986;2023-12-28T11:45:41;23.07;;;3.50;;
14817;SDS011;7500;57.698;11.986;2023-12-28T11:48:22;18.40;;;3.17;;
14817;SDS011;7500;57.698;11.986;2023-12-28T11:50:48;14.67;;;3.40;;
14817;SDS011;7500;57.698;11.986;2023-12-28T11:53:16;17.90;;;2.63;;
14817;SDS011;7500;57.698;11.986;2023-12-28T11:55:43;18.90;;;2.70;;
14817;SDS011;7500;57.698;11.986;2023-12-28T11:58:09;12.53;;;2.30;;
14817;SDS011;7500;57.698;11.986;2023-12-28T12:00:36;10.93;;;2.17;;
14817;SDS011;7500;57.698;11.986;2023-12-28T12:03:03;20.30;;;3.07;;
14817;SDS011;7500;57.698;11.986;2023-12-28T12:05:29;11.83;;;2.50;;
14817;SDS011;7500;57.698;11.986;2023-12-28T12:07:56;12.73;;;2.60;;
14817;SDS011;7500;57.698;11.986;2023-12-28T12:10:24;13.37;;;2.20;;
14817;SDS011;7500;57.698;11.986;2023-12-28T12:12:51;10.70;;;2.50;;
14817;SDS011;7500;57.698;11.986;2023-12-28T12:15:18;18.70;;;2.47;;
14817;SDS011;7500;57.698;11.986;2023-12-28T12:17:44;16.13;;;5.40;;
14817;SDS011;7500;57.698;11.986;2023-12-28T12:20:11;15.77;;;2.50;;
14817;SDS011;7500;57.698;11.986;2023-12-28T12:22:37;17.07;;;2.60;;
14817;SDS011;7500;57.698;11.986;2023-12-28T12:25:05;22.77;;;2.63;;
14817;SDS011;7500;57.698;11.986;2023-12-28T12:27:34;19.93;;;2.67;;
14817;SDS011;7500;57.698;11.986;2023-12-28T12:30:01;12.10;;;2.03;;
14817;SDS011;7500;57.698;11.986;2023-12-28T12:32:28;11.30;;;2.07;;
14817;SDS011;7500;57.698;11.986;2023-12-28T12:34:54;17.13;;;2.00;;
14817;SDS011;7500;57.698;11.986;2023-12-28T12:37:21;9.27;;;2.10;;
14817;SDS011;7500;57.698;11.986;2023-12-28T12:39:48;8.77;;;1.70;;
14817;SDS011;7500;57.698;11.986;2023-12-28T12:42:15;13.27;;;1.90;;
14817;SDS011;7500;57.698;11.986;2023-12-28T12:44:43;13.80;;;2.53;;
14817;SDS011;7500;57.698;11.986;2023-12-28T12:47:10;16.27;;;2.30;;
14817;SDS011;7500;57.698;11.986;2023-12-28T12:49:36;7.73;;;1.87;;
14817;SDS011;7500;57.698;11.986;2023-12-28T12:52:03;9.73;;;2.00;;
14817;SDS011;7500;57.698;11.986;2023-12-28T12:54:29;12.23;;;2.00;;
14817;SDS011;7500;57.698;11.986;2023-12-28T12:56:56;10.40;;;2.30;;
14817;SDS011;7500;57.698;11.986;2023-12-28T12:59:24;9.77;;;2.47;;
14817;SDS011;7500;57.698;11.986;2023-12-28T13:01:52;14.17;;;2.10;;
14817;SDS011;7500;57.698;11.986;2023-12-28T13:04:19;14.83;;;2.17;;
14817;SDS011;7500;57.698;11.986;2023-12-28T13:06:46;14.77;;;2.20;;
14817;SDS011;7500;57.698;11.986;2023-12-28T13:09:13;14.87;;;2.57;;
14817;SDS011;7500;57.698;11.986;2023-12-28T13:11:40;12.50;;;2.33;;
14817;SDS011;7500;57.698;11.986;2023-12-28T13:14:06;13.20;;;2.17;;
14817;SDS011;7500;57.698;11.986;2023-12-28T13:16:33;12.63;;;2.00;;
14817;SDS011;7500;57.698;11.986;2023-12-28T13:19:01;17.17;;;2.10;;
14817;SDS011;7500;57.698;11.986;2023-12-28T13:21:27;11.80;;;2.40;;
14817;SDS011;7500;57.698;11.986;2023-12-28T13:23:54;12.90;;;2.20;;
14817;SDS011;7500;57.698;11.986;2023-12-28T13:26:22;19.30;;;2.00;;
14817;SDS011;7500;57.698;11.986;2023-12-28T13:28:48;19.00;;;2.00;;
14817;SDS011;7500;57.698;11.986;2023-12-28T13:31:15;11.83;;;1.87;;
14817;SDS011;7500;57.698;11.986;2023-12-28T13:33:43;9.43;;;1.83;;
14817;SDS011;7500;57.698;11.986;2023-12-28T13:36:11;12.03;;;1.70;;
14817;SDS011;7500;57.698;11.986;2023-12-28T13:38:37;10.80;;;1.60;;
14817;SDS011;7500;57.698;11.986;2023-12-28T13:41:04;11.77;;;2.77;;
14817;SDS011;7500;57.698;11.986;2023-12-28T13:43:31;19.07;;;2.80;;
14817;SDS011;7500;57.698;11.986;2023-12-28T13:45:57;12.33;;;1.83;;
14817;SDS011;7500;57.698;11.986;2023-12-28T13:48:24;13.97;;;2.33;;
14817;SDS011;7500;57.698;11.986;2023-12-28T13:50:51;17.80;;;2.10;;
14817;SDS011;7500;57.698;11.986;2023-12-28T13:53:19;13.60;;;2.00;;
14817;SDS011;7500;57.698;11.986;2023-12-28T13:55:45;18.03;;;3.93;;
14817;SDS011;7500;57.698;11.986;2023-12-28T13:58:12;12.80;;;2.40;;
14817;SDS011;7500;57.698;11.986;2023-12-28T14:00:39;16.23;;;2.17;;
14817;SDS011;7500;57.698;11.986;2023-12-28T14:03:05;12.83;;;2.07;;
14817;SDS011;7500;57.698;11.986;2023-12-28T14:05:32;13.97;;;2.30;;
14817;SDS011;7500;57.698;11.986;2023-12-28T14:07:58;14.77;;;2.13;;
14817;SDS011;7500;57.698;11.986;2023-12-28T14:10:26;17.50;;;1.70;;
14817;SDS011;7500;57.698;11.986;2023-12-28T14:12:53;16.37;;;2.53;;
14817;SDS011;7500;57.698;11.986;2023-12-28T14:15:19;13.33;;;2.10;;
14817;SDS011;7500;57.698;11.986;2023-12-28T14:17:46;12.53;;;2.03;;
14817;SDS011;7500;57.698;11.986;2023-12-28T14:20:12;8.73;;;2.10;;
14817;SDS011;7500;57.698;11.986;2023-12-28T14:22:39;14.90;;;2.63;;
14817;SDS011;7500;57.698;11.986;2023-12-28T14:25:06;15.23;;;2.27;;
14817;SDS011;7500;57.698;11.986;2023-12-28T14:27:34;13.73;;;2.60;;
14817;SDS011;7500;57.698;11.986;2023-12-28T14:30:01;11.20;;;2.17;;
14817;SDS011;7500;57.698;11.986;2023-12-28T14:32:28;14.63;;;2.23;;
14817;SDS011;7500;57.698;11.986;2023-12-28T14:34:55;12.97;;;2.30;;
14817;SDS011;7500;57.698;11.986;2023-12-28T14:37:22;12.60;;;2.10;;
14817;SDS011;7500;57.698;11.986;2023-12-28T14:39:48;15.33;;;2.60;;
14817;SDS011;7500;57.698;11.986;2023-12-28T14:42:15;16.60;;;3.27;;